createdAt,value
2022-08-17T00:01:51.275Z,4.68
2022-08-17T00:04:20.445Z,4.47
2022-08-17T00:06:49.344Z,4.57
2022-08-17T00:09:18.463Z,5.00
2022-08-17T00:12:34.754Z,4.95
2022-08-17T00:14:36.199Z,5.07
2022-08-17T00:17:04.794Z,4.72
2022-08-17T00:19:33.031Z,4.35
2022-08-17T00:22:31.502Z,4.55
2022-08-17T00:24:50.610Z,5.10
2022-08-17T00:27:18.462Z,4.38
2022-08-17T00:29:46.022Z,4.88
2022-08-17T00:33:22.741Z,4.32
2022-08-17T00:35:08.349Z,5.18
2022-08-17T00:37:35.274Z,4.60
2022-08-17T00:40:02.543Z,4.57
2022-08-17T00:42:31.247Z,4.78
2022-08-17T00:44:58.805Z,5.07
2022-08-17T00:47:25.796Z,3.90
2022-08-17T00:49:53.085Z,5.03
2022-08-17T00:52:23.160Z,5.32
2022-08-17T00:54:54.051Z,4.85
2022-08-17T00:57:30.975Z,6.53
2022-08-17T01:00:10.112Z,5.45
2022-08-17T01:02:42.222Z,5.55
2022-08-17T01:05:15.157Z,5.15
2022-08-17T01:07:43.423Z,5.07
2022-08-17T01:10:59.176Z,5.68
2022-08-17T01:13:02.547Z,5.97
2022-08-17T01:15:32.049Z,5.13
2022-08-17T01:17:58.889Z,5.10
2022-08-17T01:20:25.714Z,5.25
2022-08-17T01:22:53.284Z,5.22
2022-08-17T01:25:21.395Z,5.43
2022-08-17T01:27:49.502Z,5.82
2022-08-17T01:30:57.128Z,5.05
2022-08-17T01:33:04.361Z,5.60
2022-08-17T01:35:32.065Z,5.63
2022-08-17T01:37:58.928Z,5.28
2022-08-17T01:40:31.367Z,5.13
2022-08-17T01:43:11.017Z,5.40
2022-08-17T01:45:45.314Z,5.68
2022-08-17T01:48:12.871Z,5.47
2022-08-17T01:50:43.458Z,5.15
2022-08-17T01:53:18.290Z,5.43
2022-08-17T01:55:56.761Z,6.05
2022-08-17T01:58:23.991Z,4.82
2022-08-17T02:01:00.196Z,6.25
2022-08-17T02:03:28.800Z,5.43
2022-08-17T02:05:55.887Z,7.13
2022-08-17T02:08:37.105Z,6.55
2022-08-17T02:11:15.759Z,6.05
2022-08-17T02:13:48.539Z,6.25
2022-08-17T02:16:22.195Z,6.10
2022-08-17T02:18:49.015Z,6.13
2022-08-17T02:21:15.977Z,5.57
2022-08-17T02:23:47.716Z,5.72
2022-08-17T02:26:25.924Z,5.85
2022-08-17T02:28:53.730Z,5.82
2022-08-17T02:31:21.397Z,5.57
2022-08-17T02:33:56.558Z,6.38
2022-08-17T02:36:28.110Z,5.95
2022-08-17T02:38:55.099Z,5.93
2022-08-17T02:41:21.893Z,5.28
2022-08-17T02:43:48.680Z,6.28
2022-08-17T02:46:15.519Z,5.70
2022-08-17T02:48:42.363Z,6.25
2022-08-17T02:51:09.378Z,6.95
2022-08-17T02:53:36.319Z,7.35
2022-08-17T02:56:03.967Z,5.28
2022-08-17T02:58:34.523Z,5.07
2022-08-17T03:01:06.971Z,5.70
2022-08-17T03:03:35.035Z,4.72
2022-08-17T03:06:02.541Z,4.97
2022-08-17T03:08:30.394Z,5.50
2022-08-17T03:10:57.752Z,5.57
2022-08-17T03:13:24.767Z,5.00
2022-08-17T03:15:51.719Z,5.63
2022-08-17T03:18:24.523Z,6.15
2022-08-17T03:20:54.137Z,6.45
2022-08-17T03:23:23.990Z,6.68
2022-08-17T03:25:53.189Z,6.93
2022-08-17T03:28:21.232Z,6.80
2022-08-17T03:30:48.133Z,6.65
2022-08-17T03:33:15.005Z,6.43
2022-08-17T03:35:42.155Z,6.35
2022-08-17T03:38:11.253Z,6.10
2022-08-17T03:40:57.941Z,7.00
2022-08-17T03:43:28.041Z,6.03
2022-08-17T03:46:28.865Z,7.43
2022-08-17T03:49:20.146Z,6.05
2022-08-17T03:52:05.952Z,6.57
2022-08-17T03:54:51.575Z,7.07
2022-08-17T03:57:19.307Z,6.85
2022-08-17T04:02:30.538Z,6.07
2022-08-17T04:04:57.855Z,5.75
2022-08-17T04:07:27.731Z,5.85
2022-08-17T04:09:55.034Z,6.60
2022-08-17T04:12:24.045Z,6.88
2022-08-17T04:14:52.658Z,7.03
2022-08-17T04:17:25.866Z,7.55
2022-08-17T04:19:54.005Z,7.75
2022-08-17T04:22:32.024Z,8.02
2022-08-17T04:25:17.366Z,8.10
2022-08-17T04:27:44.258Z,7.95
2022-08-17T04:30:12.325Z,7.88
2022-08-17T04:33:05.011Z,7.88
2022-08-17T04:35:40.209Z,8.00
2022-08-17T04:38:09.602Z,6.88
2022-08-17T04:40:55.545Z,7.18
2022-08-17T04:43:24.678Z,7.00
2022-08-17T04:45:56.836Z,7.25
2022-08-17T04:48:34.764Z,8.02
2022-08-17T04:51:06.227Z,7.70
2022-08-17T04:53:33.126Z,8.63
2022-08-17T04:55:59.991Z,7.40
2022-08-17T04:58:26.880Z,7.72
2022-08-17T05:00:53.799Z,7.40
2022-08-17T05:03:20.711Z,8.57
2022-08-17T05:05:49.735Z,8.20
2022-08-17T05:08:19.042Z,8.23
2022-08-17T05:10:47.122Z,6.95
2022-08-17T05:13:23.758Z,8.85
2022-08-17T05:15:56.438Z,8.55
2022-08-17T05:18:24.594Z,8.15
2022-08-17T05:20:52.371Z,7.85
2022-08-17T05:23:21.798Z,8.43
2022-08-17T05:25:51.559Z,7.35
2022-08-17T05:28:23.460Z,7.82
2022-08-17T05:30:55.379Z,7.50
2022-08-17T05:33:26.598Z,7.35
2022-08-17T05:35:56.702Z,6.95
2022-08-17T05:38:25.700Z,7.43
2022-08-17T05:40:53.736Z,8.85
2022-08-17T05:43:25.544Z,8.77
2022-08-17T05:46:14.632Z,9.40
2022-08-17T05:48:50.850Z,9.35
2022-08-17T05:51:48.891Z,8.95
2022-08-17T05:54:33.917Z,9.15
2022-08-17T05:57:28.180Z,9.13
2022-08-17T06:00:06.852Z,9.55
2022-08-17T06:02:47.654Z,8.95
2022-08-17T06:05:37.948Z,8.38
2022-08-17T06:08:51.524Z,8.82
2022-08-17T06:11:37.381Z,8.68
2022-08-17T06:14:48.656Z,8.77
2022-08-17T06:17:20.055Z,8.05
2022-08-17T06:19:56.908Z,8.05
2022-08-17T06:22:28.057Z,8.00
2022-08-17T06:25:01.781Z,7.88
2022-08-17T06:27:40.642Z,7.28
2022-08-17T06:30:20.315Z,8.07
2022-08-17T06:32:50.172Z,7.75
2022-08-17T06:35:28.903Z,8.02
2022-08-17T06:38:36.997Z,7.60
2022-08-17T06:41:27.645Z,7.72
2022-08-17T06:44:43.668Z,7.72
2022-08-17T06:47:31.108Z,8.48
2022-08-17T06:50:22.167Z,9.02
2022-08-17T06:53:03.381Z,9.18
2022-08-17T06:55:40.738Z,7.15
2022-08-17T06:58:16.341Z,5.95
2022-08-17T07:00:47.443Z,5.53
2022-08-17T07:03:38.762Z,5.30
2022-08-17T07:06:15.487Z,5.72
2022-08-17T07:08:51.268Z,6.22
2022-08-17T07:11:27.390Z,6.32
2022-08-17T07:14:03.038Z,6.65
2022-08-17T07:16:46.712Z,5.85
2022-08-17T07:19:19.963Z,5.75
2022-08-17T07:22:07.694Z,5.70
2022-08-17T07:24:57.299Z,5.65
2022-08-17T07:27:30.699Z,4.93
2022-08-17T07:30:05.639Z,5.43
2022-08-17T07:32:39.538Z,6.05
2022-08-17T07:35:41.279Z,5.80
2022-08-17T07:38:24.707Z,5.45
2022-08-17T07:41:02.942Z,5.70
2022-08-17T07:43:35.648Z,4.57
2022-08-17T07:46:29.837Z,3.90
2022-08-17T07:49:18.701Z,4.85
2022-08-17T07:51:48.168Z,4.75
2022-08-17T07:54:32.258Z,5.50
2022-08-17T07:57:10.741Z,5.30
2022-08-17T07:59:40.728Z,5.97
2022-08-17T08:02:38.682Z,5.63
2022-08-17T08:05:13.284Z,4.00
2022-08-17T08:07:57.444Z,4.10
2022-08-17T08:10:35.747Z,4.22
2022-08-17T08:13:20.979Z,4.20
2022-08-17T08:15:54.040Z,4.60
2022-08-17T08:18:55.015Z,3.92
2022-08-17T08:21:41.778Z,3.85
2022-08-17T08:24:41.704Z,3.92
2022-08-17T08:27:27.232Z,3.38
2022-08-17T08:30:05.047Z,4.22
2022-08-17T08:32:40.202Z,3.60
2022-08-17T08:35:30.983Z,3.53
2022-08-17T08:38:40.090Z,3.28
2022-08-17T08:41:38.623Z,2.95
2022-08-17T08:44:14.626Z,2.92
2022-08-17T08:46:53.123Z,3.13
2022-08-17T08:50:02.523Z,3.25
2022-08-17T08:52:30.995Z,3.75
2022-08-17T08:55:08.772Z,3.40
2022-08-17T08:57:44.261Z,3.30
2022-08-17T09:00:21.514Z,3.00
2022-08-17T09:03:15.468Z,3.20
2022-08-17T09:06:03.756Z,3.53
2022-08-17T09:08:41.591Z,2.95
2022-08-17T09:11:14.180Z,2.55
2022-08-17T09:13:57.625Z,3.70
2022-08-17T09:16:44.519Z,3.72
2022-08-17T09:19:30.488Z,3.53
2022-08-17T09:22:32.735Z,2.88
2022-08-17T09:25:14.790Z,2.92
2022-08-17T09:28:03.656Z,3.30
2022-08-17T09:30:52.375Z,2.97
2022-08-17T09:33:26.877Z,2.83
2022-08-17T09:36:02.350Z,3.25
2022-08-17T09:39:01.905Z,2.60
2022-08-17T09:41:33.725Z,2.08
2022-08-17T09:44:49.889Z,2.97
2022-08-17T09:47:32.295Z,2.10
2022-08-17T09:50:08.900Z,2.80
2022-08-17T09:52:35.835Z,2.85
2022-08-17T09:55:05.272Z,2.75
2022-08-17T09:57:45.638Z,3.03
2022-08-17T10:02:58.719Z,2.60
2022-08-17T10:06:02.743Z,2.65
2022-08-17T10:08:54.619Z,2.38
2022-08-17T10:12:03.240Z,2.17
2022-08-17T10:14:53.585Z,2.17
2022-08-17T10:17:30.617Z,2.20
2022-08-17T10:20:09.698Z,2.28
2022-08-17T10:23:10.092Z,2.20
2022-08-17T10:26:01.174Z,2.03
2022-08-17T10:28:36.514Z,2.38
2022-08-17T10:34:41.302Z,1.85
2022-08-17T10:37:32.636Z,1.88
2022-08-17T10:40:38.354Z,1.75
2022-08-17T10:43:38.525Z,1.85
2022-08-17T10:46:31.183Z,2.42
2022-08-17T10:49:18.795Z,2.00
2022-08-17T10:51:57.457Z,2.13
2022-08-17T10:54:34.827Z,2.60
2022-08-17T10:57:01.889Z,2.53
2022-08-17T10:59:37.435Z,2.20
2022-08-17T11:02:23.045Z,2.45
2022-08-17T11:04:58.910Z,2.60
2022-08-17T11:08:05.345Z,2.30
2022-08-17T11:10:45.526Z,2.50
2022-08-17T11:13:48.454Z,2.28
2022-08-17T11:16:51.232Z,1.83
2022-08-17T11:19:53.580Z,1.63
2022-08-17T11:22:49.485Z,1.60
2022-08-17T11:25:22.718Z,1.45
2022-08-17T11:28:04.364Z,1.90
2022-08-17T11:30:59.566Z,2.13
2022-08-17T11:33:30.322Z,1.80
2022-08-17T11:36:24.466Z,1.90
2022-08-17T11:39:19.680Z,2.17
2022-08-17T11:42:05.863Z,1.80
2022-08-17T11:44:40.571Z,1.83
2022-08-17T11:47:36.733Z,2.08
2022-08-17T11:50:27.094Z,1.55
2022-08-17T11:52:55.141Z,1.95
2022-08-17T11:55:38.520Z,1.90
2022-08-17T11:58:27.222Z,1.75
2022-08-17T12:00:56.720Z,2.22
2022-08-17T12:03:33.379Z,2.05
2022-08-17T12:06:24.691Z,2.20
2022-08-17T12:09:01.917Z,2.03
2022-08-17T12:11:56.393Z,2.05
2022-08-17T12:14:51.312Z,1.95
2022-08-17T12:17:15.673Z,2.77
2022-08-17T12:20:30.945Z,1.85
2022-08-17T12:23:24.951Z,2.20
2022-08-17T12:26:11.817Z,2.20
2022-08-17T12:28:44.325Z,1.75
2022-08-17T12:31:23.246Z,2.65
2022-08-17T12:33:51.886Z,2.17
2022-08-17T12:36:25.532Z,1.92
2022-08-17T12:38:59.532Z,2.38
2022-08-17T12:41:46.955Z,1.77
2022-08-17T12:44:21.770Z,1.73
2022-08-17T12:46:56.034Z,1.98
2022-08-17T12:49:33.292Z,1.63
2022-08-17T12:52:26.770Z,1.75
2022-08-17T12:55:04.305Z,2.65
2022-08-17T12:57:39.823Z,3.35
2022-08-17T13:00:22.081Z,3.38
2022-08-17T13:02:59.499Z,3.03
2022-08-17T13:05:36.082Z,2.60
2022-08-17T13:08:13.540Z,3.05
2022-08-17T13:10:40.838Z,2.45
2022-08-17T13:13:22.907Z,3.15
2022-08-17T13:15:58.555Z,3.15
2022-08-17T13:18:40.453Z,3.03
2022-08-17T13:21:22.297Z,3.08
2022-08-17T13:24:11.844Z,3.13
2022-08-17T13:26:40.802Z,3.42
2022-08-17T13:29:27.278Z,3.40
2022-08-17T13:32:16.456Z,3.08
2022-08-17T13:35:12.325Z,3.03
2022-08-17T13:37:57.014Z,3.35
2022-08-17T13:40:29.247Z,3.33
2022-08-17T13:42:57.414Z,3.45
2022-08-17T13:45:36.537Z,2.83
2022-08-17T13:48:22.808Z,2.75
2022-08-17T13:51:06.598Z,2.65
2022-08-17T13:53:51.236Z,2.97
2022-08-17T13:56:39.173Z,3.17
2022-08-17T13:59:11.233Z,2.95
2022-08-17T14:01:53.523Z,2.80
2022-08-17T14:04:27.852Z,2.75
2022-08-17T14:07:01.372Z,2.85
2022-08-17T14:09:37.236Z,2.95
2022-08-17T14:12:08.964Z,2.42
2022-08-17T14:14:36.359Z,2.55
2022-08-17T14:17:04.695Z,2.58
2022-08-17T14:19:31.643Z,2.55
2022-08-17T14:21:59.811Z,2.28
2022-08-17T14:24:32.805Z,2.45
2022-08-17T14:27:01.838Z,2.60
2022-08-17T14:29:34.376Z,2.80
2022-08-17T14:32:17.152Z,2.15
2022-08-17T14:34:45.255Z,2.53
2022-08-17T14:37:12.585Z,2.42
2022-08-17T14:39:39.654Z,2.20
2022-08-17T14:42:06.808Z,2.00
2022-08-17T14:44:33.856Z,2.72
2022-08-17T14:47:00.687Z,2.20
2022-08-17T14:49:28.159Z,1.95
2022-08-17T14:51:54.954Z,2.10
2022-08-17T14:54:29.483Z,2.13
2022-08-17T14:57:25.768Z,3.03
2022-08-17T14:59:54.509Z,2.40
2022-08-17T15:02:29.307Z,1.83
2022-08-17T15:05:03.999Z,2.40
2022-08-17T15:07:31.503Z,2.40
2022-08-17T15:10:00.609Z,2.30
2022-08-17T15:12:32.709Z,2.60
2022-08-17T15:15:01.901Z,2.22
2022-08-17T15:17:44.594Z,2.13
2022-08-17T15:20:15.484Z,2.47
2022-08-17T15:22:44.253Z,2.58
2022-08-17T15:25:11.881Z,2.55
2022-08-17T15:27:38.734Z,2.50
2022-08-17T15:30:07.471Z,1.98
2022-08-17T15:32:38.186Z,2.20
2022-08-17T15:35:07.733Z,2.72
2022-08-17T15:37:35.462Z,2.00
2022-08-17T15:40:02.441Z,2.22
2022-08-17T15:42:29.411Z,2.20
2022-08-17T15:44:56.408Z,1.83
2022-08-17T15:47:24.371Z,2.30
2022-08-17T15:49:51.159Z,1.73
2022-08-17T15:52:27.836Z,2.50
2022-08-17T15:54:59.899Z,2.03
2022-08-17T15:57:27.785Z,1.70
2022-08-17T16:03:14.774Z,1.75
2022-08-17T16:05:24.059Z,2.30
2022-08-17T16:07:52.188Z,2.08
2022-08-17T16:10:19.732Z,1.95
2022-08-17T16:12:48.826Z,1.95
2022-08-17T16:15:16.357Z,1.55
2022-08-17T16:17:43.473Z,3.13
2022-08-17T16:20:19.950Z,2.25
2022-08-17T16:22:50.192Z,2.20
2022-08-17T16:25:21.465Z,2.42
2022-08-17T16:30:17.729Z,1.92
2022-08-17T16:32:45.353Z,2.00
2022-08-17T16:35:16.204Z,2.15
2022-08-17T16:37:45.507Z,2.13
2022-08-17T16:40:14.748Z,2.22
2022-08-17T16:42:43.221Z,1.95
2022-08-17T16:45:13.708Z,1.75
2022-08-17T16:47:41.979Z,2.00
2022-08-17T16:50:11.704Z,1.83
2022-08-17T16:52:39.387Z,2.03
2022-08-17T16:55:09.679Z,2.17
2022-08-17T16:57:47.365Z,1.98
2022-08-17T17:00:19.317Z,2.15
2022-08-17T17:02:48.242Z,2.17
2022-08-17T17:05:30.065Z,2.47
2022-08-17T17:08:12.782Z,2.28
2022-08-17T17:10:50.887Z,2.30
2022-08-17T17:13:32.576Z,2.30
2022-08-17T17:16:19.025Z,2.15
2022-08-17T17:19:14.910Z,3.47
2022-08-17T17:21:51.995Z,2.58
2022-08-17T17:24:32.551Z,2.38
2022-08-17T17:27:07.368Z,2.13
2022-08-17T17:29:47.331Z,2.50
2022-08-17T17:34:54.010Z,2.53
2022-08-17T17:37:27.373Z,2.70
2022-08-17T17:39:59.896Z,2.33
2022-08-17T17:42:31.385Z,2.25
2022-08-17T17:45:18.619Z,2.50
2022-08-17T17:47:46.287Z,2.25
2022-08-17T17:50:13.437Z,2.58
2022-08-17T17:52:47.432Z,2.55
2022-08-17T17:55:31.364Z,2.95
2022-08-17T17:58:09.344Z,2.10
2022-08-17T18:01:03.771Z,2.90
2022-08-17T18:03:42.713Z,2.67
2022-08-17T18:06:45.448Z,2.63
2022-08-17T18:09:28.413Z,2.40
2022-08-17T18:12:09.700Z,2.60
2022-08-17T18:15:21.540Z,2.65
2022-08-17T18:18:10.360Z,2.40
2022-08-17T18:20:53.373Z,2.47
2022-08-17T18:23:27.766Z,3.30
2022-08-17T18:25:56.273Z,2.45
2022-08-17T18:28:32.233Z,2.60
2022-08-17T18:31:19.942Z,2.20
2022-08-17T18:33:53.402Z,2.60
2022-08-17T18:36:39.806Z,2.63
2022-08-17T18:39:28.479Z,2.83
2022-08-17T18:41:58.425Z,2.45
2022-08-17T18:44:28.949Z,2.95
2022-08-17T18:47:20.272Z,2.87
2022-08-17T18:49:53.623Z,2.42
2022-08-17T18:52:29.462Z,3.15
2022-08-17T18:55:22.382Z,2.72
2022-08-17T18:58:19.823Z,3.15
2022-08-17T19:00:49.029Z,2.22
2022-08-17T19:03:15.955Z,2.53
2022-08-17T19:05:46.038Z,1.92
2022-08-17T19:08:24.227Z,2.33
2022-08-17T19:11:19.228Z,2.97
2022-08-17T19:14:05.179Z,2.92
2022-08-17T19:17:02.545Z,3.10
2022-08-17T19:19:55.479Z,2.72
2022-08-17T19:22:53.726Z,2.92
2022-08-17T19:25:29.150Z,2.60
2022-08-17T19:28:22.535Z,2.97
2022-08-17T19:30:54.683Z,3.00
2022-08-17T19:33:21.736Z,2.95
2022-08-17T19:35:57.537Z,2.75
2022-08-17T19:38:37.901Z,2.90
2022-08-17T19:41:25.751Z,3.10
2022-08-17T19:44:07.820Z,3.35
2022-08-17T19:46:56.236Z,2.67
2022-08-17T19:49:48.922Z,2.85
2022-08-17T19:52:22.661Z,2.60
2022-08-17T19:54:55.768Z,3.00
2022-08-17T19:57:34.616Z,3.15
2022-08-17T20:00:01.809Z,2.88
2022-08-17T20:02:54.033Z,2.90
2022-08-17T20:06:14.787Z,2.75
2022-08-17T20:09:03.878Z,2.58
2022-08-17T20:11:58.520Z,2.83
2022-08-17T20:14:55.175Z,3.28
2022-08-17T20:17:28.144Z,2.95
2022-08-17T20:20:00.562Z,3.22
2022-08-17T20:22:50.414Z,2.88
2022-08-17T20:25:52.475Z,2.25
2022-08-17T20:28:31.721Z,2.78
2022-08-17T20:30:58.789Z,3.10
2022-08-17T20:33:27.382Z,2.70
2022-08-17T20:36:18.146Z,2.70
2022-08-17T20:38:48.061Z,2.53
2022-08-17T20:41:22.373Z,3.50
2022-08-17T20:43:56.752Z,2.92
2022-08-17T20:46:49.711Z,3.65
2022-08-17T20:49:39.247Z,3.50
2022-08-17T20:52:09.585Z,3.72
2022-08-17T20:54:51.266Z,3.67
2022-08-17T21:00:16.405Z,3.40
2022-08-17T21:03:25.355Z,4.80
2022-08-17T21:05:53.389Z,5.13
2022-08-17T21:08:32.351Z,4.45
2022-08-17T21:11:00.988Z,4.68
2022-08-17T21:13:38.051Z,4.80
2022-08-17T21:16:23.000Z,4.65
2022-08-17T21:18:52.774Z,3.90
2022-08-17T21:21:37.917Z,4.40
2022-08-17T21:24:44.178Z,4.35
2022-08-17T21:27:23.122Z,5.00
2022-08-17T21:30:36.065Z,4.50
2022-08-17T21:33:31.685Z,5.10
2022-08-17T21:36:13.116Z,4.93
2022-08-17T21:38:57.804Z,5.05
2022-08-17T21:41:46.441Z,4.93
2022-08-17T21:44:26.758Z,4.63
2022-08-17T21:47:25.241Z,4.63
2022-08-17T21:49:53.453Z,5.35
2022-08-17T21:52:24.070Z,5.05
2022-08-17T21:55:02.523Z,5.03
2022-08-17T21:57:30.963Z,5.68
2022-08-17T22:00:01.661Z,5.78
2022-08-17T22:05:13.354Z,6.47
2022-08-17T22:07:50.888Z,5.78
2022-08-17T22:10:51.359Z,6.50
2022-08-17T22:13:18.151Z,6.38
2022-08-17T22:16:15.522Z,7.28
2022-08-17T22:18:58.902Z,6.90
2022-08-17T22:21:26.686Z,6.80
2022-08-17T22:24:18.031Z,6.90
2022-08-17T22:26:57.093Z,7.07
2022-08-17T22:31:57.179Z,7.57
2022-08-17T22:34:26.307Z,7.57
2022-08-17T22:37:20.321Z,6.90
2022-08-17T22:39:59.040Z,6.95
2022-08-17T22:42:26.299Z,7.03
2022-08-17T22:44:54.599Z,6.65
2022-08-17T22:50:01.624Z,7.07
2022-08-17T22:53:01.333Z,7.15
2022-08-17T22:55:50.039Z,6.80
2022-08-17T22:58:39.267Z,6.88
2022-08-17T23:01:28.202Z,5.93
2022-08-17T23:04:09.399Z,6.10
2022-08-17T23:06:38.836Z,5.53
2022-08-17T23:09:07.453Z,6.63
2022-08-17T23:11:48.999Z,7.45
2022-08-17T23:14:19.821Z,6.25
2022-08-17T23:16:48.709Z,6.72
2022-08-17T23:19:18.876Z,6.32
2022-08-17T23:21:45.998Z,5.82
2022-08-17T23:24:22.945Z,6.78
2022-08-17T23:26:50.073Z,6.45
2022-08-17T23:29:16.926Z,6.68
2022-08-17T23:31:43.778Z,6.95
2022-08-17T23:34:13.189Z,8.20
2022-08-17T23:36:40.185Z,6.15
2022-08-17T23:39:07.580Z,7.38
2022-08-17T23:41:38.733Z,7.40
2022-08-17T23:44:07.014Z,7.93
2022-08-17T23:46:34.701Z,7.28
2022-08-17T23:49:01.683Z,6.90
2022-08-17T23:51:34.091Z,7.45
2022-08-17T23:54:12.676Z,8.10
2022-08-17T23:56:46.775Z,8.57
2022-08-17T23:59:20.022Z,7.03
